Sant Vicenc dels Horts, Spain
Current Conditions -  °F | °C
As of 3:30 PM on Friday 28 Nov 2014 (Local Time) from LEBL Reporting Station
Scattered Clouds Scattered Clouds  
Wind Chill: 66°   Ceiling: Unl
Heat Index: 66°   Visibility: 6mi
Dew Point: 61°   Wind: 12mph
Humidity: 83%   Direction: 80°E
Pressure: 29.38"   Gusts: NA
Location:  41.39°N, 2.01°E
Report Text: LEBL 281430Z 08010KT 9999 FEW020TCU SCT055 19/16 Q0995 NOSIG
Loading
Personal Weather Stations






























Interactive Weather Map New forecast layout! Learn more

10-Day Weather Forecast

Advertisements
Track Severe Weather on mobile